KWRL

Worland Municipal Airport

Worland, Wyoming, USA
KWRL 210533Z 2106/2206 VRB06KT P6SM SCT250 FM212200 32011G19KT P6SM VCSH BKN120 FM220100 VRB06KT P6SM SCT120
Issued Valid From Valid To
Jul-21 @ 05:33 UTC
(4 hours ago)
Jul-21 @ 06:00 UTC
(4 hours ago)
Jul-22 @ 06:00 UTC
(in 20 hours)
Jul-21 @ 06:00 to Jul-21 @ 22:00
KWRL 210533Z 2106/2206 VRB06KT P6SM SCT250
Wind Visibility Clouds
Variable at 6 knots Greater than 6 miles
  • Scattered at 25,000' AGL
From Jul-21 @ 22:00 to Jul-22 @ 01:00
FM212200 32011G19KT P6SM VCSH BKN120
Wind Visibility Clouds
320° at 11 knots
 Gusting to 19 knots
Greater than 6 miles
  • Broken at 12,000' AGL
From Jul-22 @ 01:00 to Jul-22 @ 06:00
FM220100 VRB06KT P6SM SCT120
Wind Visibility Clouds
Variable at 6 knots Greater than 6 miles
  • Scattered at 12,000' AGL
KWRL 210533Z 2106/2206 VRB06KT P6SM SCT250 FM212200 32011G19KT P6SM VCSH BKN120 FM220100 VRB06KT P6SM SCT120
Issued Jul-21 @ 05:33 UTC
(4 hours ago)
Valid From Jul-21 @ 06:00 UTC
(4 hours ago)
Valid To Jul-22 @ 06:00 UTC
(in 20 hours)
Jul-21 @ 06:00 - Jul-21 @ 22:00
Wind Visibility
Variable at 6 knots Greater than 6 miles
Clouds
  • Scattered at 25,000' AGL
From Jul-21 @ 22:00 - Jul-22 @ 01:00
Wind Visibility
320° at 11 knots
 Gusting to 19 knots
Greater than 6 miles
Clouds
  • Broken at 12,000' AGL
From Jul-22 @ 01:00 - Jul-22 @ 06:00
Wind Visibility
Variable at 6 knots Greater than 6 miles
Clouds
  • Scattered at 12,000' AGL